sensor_id;sensor_type;location;lat;lon;timestamp;temperature;humidity
17128;DHT22;8679;50.842;4.322;2022-07-29T00:02:08;19.10;99.90
17128;DHT22;8679;50.842;4.322;2022-07-29T00:04:35;19.10;99.90
17128;DHT22;8679;50.842;4.322;2022-07-29T00:07:01;19.10;99.90
17128;DHT22;8679;50.842;4.322;2022-07-29T00:09:26;19.10;99.90
17128;DHT22;8679;50.842;4.322;2022-07-29T00:11:53;19.10;99.90
17128;DHT22;8679;50.842;4.322;2022-07-29T00:14:20;19.10;99.90
17128;DHT22;8679;50.842;4.322;2022-07-29T00:16:45;19.00;99.90
17128;DHT22;8679;50.842;4.322;2022-07-29T00:19:11;19.00;99.90
17128;DHT22;8679;50.842;4.322;2022-07-29T00:21:38;19.00;99.90
17128;DHT22;8679;50.842;4.322;2022-07-29T00:24:04;19.00;99.90
17128;DHT22;8679;50.842;4.322;2022-07-29T00:26:29;18.90;99.90
17128;DHT22;8679;50.842;4.322;2022-07-29T00:29:02;18.90;99.90
17128;DHT22;8679;50.842;4.322;2022-07-29T00:31:28;18.80;99.90
17128;DHT22;8679;50.842;4.322;2022-07-29T00:33:54;18.80;99.90
17128;DHT22;8679;50.842;4.322;2022-07-29T00:36:20;18.80;99.90
17128;DHT22;8679;50.842;4.322;2022-07-29T00:38:50;18.70;99.90
17128;DHT22;8679;50.842;4.322;2022-07-29T00:41:17;18.70;99.90
17128;DHT22;8679;50.842;4.322;2022-07-29T00:43:43;18.70;99.90
17128;DHT22;8679;50.842;4.322;2022-07-29T00:46:10;18.70;99.90
17128;DHT22;8679;50.842;4.322;2022-07-29T00:48:36;18.70;99.90
17128;DHT22;8679;50.842;4.322;2022-07-29T00:51:03;18.60;99.90
17128;DHT22;8679;50.842;4.322;2022-07-29T00:53:30;18.60;99.90
17128;DHT22;8679;50.842;4.322;2022-07-29T00:55:56;18.60;99.90
17128;DHT22;8679;50.842;4.322;2022-07-29T00:58:23;18.60;99.90
17128;DHT22;8679;50.842;4.322;2022-07-29T01:00:49;18.50;99.90
17128;DHT22;8679;50.842;4.322;2022-07-29T01:03:14;18.50;99.90
17128;DHT22;8679;50.842;4.322;2022-07-29T01:05:42;18.50;99.90
17128;DHT22;8679;50.842;4.322;2022-07-29T01:08:08;18.40;99.90
17128;DHT22;8679;50.842;4.322;2022-07-29T01:10:37;18.40;99.90
17128;DHT22;8679;50.842;4.322;2022-07-29T01:13:03;18.40;99.90
17128;DHT22;8679;50.842;4.322;2022-07-29T01:15:30;18.30;99.90
17128;DHT22;8679;50.842;4.322;2022-07-29T01:18:05;18.30;99.90
17128;DHT22;8679;50.842;4.322;2022-07-29T01:23:40;18.30;99.90
17128;DHT22;8679;50.842;4.322;2022-07-29T01:31:47;18.10;99.90
17128;DHT22;8679;50.842;4.322;2022-07-29T01:34:35;18.10;99.90
17128;DHT22;8679;50.842;4.322;2022-07-29T01:40:03;18.00;99.90
17128;DHT22;8679;50.842;4.322;2022-07-29T01:42:42;18.00;99.90
17128;DHT22;8679;50.842;4.322;2022-07-29T01:45:18;18.00;99.90
17128;DHT22;8679;50.842;4.322;2022-07-29T01:48:00;18.00;99.90
17128;DHT22;8679;50.842;4.322;2022-07-29T01:50:35;17.90;99.90
17128;DHT22;8679;50.842;4.322;2022-07-29T01:53:04;17.80;99.90
17128;DHT22;8679;50.842;4.322;2022-07-29T01:55:34;17.80;99.90
17128;DHT22;8679;50.842;4.322;2022-07-29T01:58:03;17.70;99.90
17128;DHT22;8679;50.842;4.322;2022-07-29T02:00:31;17.70;99.90
17128;DHT22;8679;50.842;4.322;2022-07-29T02:02:59;17.60;99.90
17128;DHT22;8679;50.842;4.322;2022-07-29T02:05:27;17.60;99.90
17128;DHT22;8679;50.842;4.322;2022-07-29T02:07:56;17.60;99.90
17128;DHT22;8679;50.842;4.322;2022-07-29T02:10:26;17.60;99.90
17128;DHT22;8679;50.842;4.322;2022-07-29T02:12:54;17.50;99.90
17128;DHT22;8679;50.842;4.322;2022-07-29T02:15:22;17.50;99.90
17128;DHT22;8679;50.842;4.322;2022-07-29T02:17:55;17.40;99.90
17128;DHT22;8679;50.842;4.322;2022-07-29T02:20:22;17.40;99.90
17128;DHT22;8679;50.842;4.322;2022-07-29T02:22:51;17.40;99.90
17128;DHT22;8679;50.842;4.322;2022-07-29T02:25:18;17.40;99.90
17128;DHT22;8679;50.842;4.322;2022-07-29T02:27:44;17.40;99.90
17128;DHT22;8679;50.842;4.322;2022-07-29T02:30:12;17.30;99.90
17128;DHT22;8679;50.842;4.322;2022-07-29T02:32:40;17.30;99.90
17128;DHT22;8679;50.842;4.322;2022-07-29T02:35:08;17.30;99.90
17128;DHT22;8679;50.842;4.322;2022-07-29T02:37:36;17.30;99.90
17128;DHT22;8679;50.842;4.322;2022-07-29T02:40:03;17.30;99.90
17128;DHT22;8679;50.842;4.322;2022-07-29T02:42:30;17.30;99.90
17128;DHT22;8679;50.842;4.322;2022-07-29T02:44:56;17.30;99.90
17128;DHT22;8679;50.842;4.322;2022-07-29T02:47:29;17.20;99.90
17128;DHT22;8679;50.842;4.322;2022-07-29T02:50:00;17.20;99.90
17128;DHT22;8679;50.842;4.322;2022-07-29T02:57:41;17.10;99.90
17128;DHT22;8679;50.842;4.322;2022-07-29T03:00:09;17.10;99.90
17128;DHT22;8679;50.842;4.322;2022-07-29T03:02:44;17.10;99.90
17128;DHT22;8679;50.842;4.322;2022-07-29T03:05:17;17.00;99.90
17128;DHT22;8679;50.842;4.322;2022-07-29T03:07:47;17.00;99.90
17128;DHT22;8679;50.842;4.322;2022-07-29T03:10:14;17.00;99.90
17128;DHT22;8679;50.842;4.322;2022-07-29T03:12:41;17.00;99.90
17128;DHT22;8679;50.842;4.322;2022-07-29T03:15:08;16.90;99.90
17128;DHT22;8679;50.842;4.322;2022-07-29T03:17:35;16.90;99.90
17128;DHT22;8679;50.842;4.322;2022-07-29T03:20:02;16.90;99.90
17128;DHT22;8679;50.842;4.322;2022-07-29T03:22:28;16.90;99.90
17128;DHT22;8679;50.842;4.322;2022-07-29T03:24:53;16.90;99.90
17128;DHT22;8679;50.842;4.322;2022-07-29T03:27:19;16.90;99.90
17128;DHT22;8679;50.842;4.322;2022-07-29T03:29:45;16.90;99.90
17128;DHT22;8679;50.842;4.322;2022-07-29T03:32:10;16.80;99.90
17128;DHT22;8679;50.842;4.322;2022-07-29T03:34:36;16.80;99.90
17128;DHT22;8679;50.842;4.322;2022-07-29T03:37:04;16.80;99.90
17128;DHT22;8679;50.842;4.322;2022-07-29T03:39:35;16.80;99.90
17128;DHT22;8679;50.842;4.322;2022-07-29T03:42:02;16.70;99.90
17128;DHT22;8679;50.842;4.322;2022-07-29T03:44:29;16.70;99.90
17128;DHT22;8679;50.842;4.322;2022-07-29T03:46:57;16.70;99.90
17128;DHT22;8679;50.842;4.322;2022-07-29T03:49:26;16.60;99.90
17128;DHT22;8679;50.842;4.322;2022-07-29T03:51:52;16.60;99.90
17128;DHT22;8679;50.842;4.322;2022-07-29T03:54:18;16.50;99.90
17128;DHT22;8679;50.842;4.322;2022-07-29T03:56:45;16.50;99.90
17128;DHT22;8679;50.842;4.322;2022-07-29T03:59:14;16.50;99.90
17128;DHT22;8679;50.842;4.322;2022-07-29T04:01:41;16.50;99.90
17128;DHT22;8679;50.842;4.322;2022-07-29T04:04:07;16.40;99.90
17128;DHT22;8679;50.842;4.322;2022-07-29T04:06:44;16.40;99.90
17128;DHT22;8679;50.842;4.322;2022-07-29T04:09:10;16.40;99.90
17128;DHT22;8679;50.842;4.322;2022-07-29T04:11:38;16.40;99.90
17128;DHT22;8679;50.842;4.322;2022-07-29T04:14:04;16.30;99.90
17128;DHT22;8679;50.842;4.322;2022-07-29T04:16:30;16.30;99.90
17128;DHT22;8679;50.842;4.322;2022-07-29T04:18:55;16.40;99.90
17128;DHT22;8679;50.842;4.322;2022-07-29T04:21:21;16.40;99.90
17128;DHT22;8679;50.842;4.322;2022-07-29T04:23:46;16.40;99.90
17128;DHT22;8679;50.842;4.322;2022-07-29T04:26:16;16.30;99.90
17128;DHT22;8679;50.842;4.322;2022-07-29T04:28:42;16.30;99.90
17128;DHT22;8679;50.842;4.322;2022-07-29T04:31:08;16.40;99.90
17128;DHT22;8679;50.842;4.322;2022-07-29T04:33:34;16.30;99.90
17128;DHT22;8679;50.842;4.322;2022-07-29T04:36:00;16.40;99.90
17128;DHT22;8679;50.842;4.322;2022-07-29T04:38:26;16.30;99.90
17128;DHT22;8679;50.842;4.322;2022-07-29T04:40:51;16.40;99.90
17128;DHT22;8679;50.842;4.322;2022-07-29T04:43:17;16.30;99.90
17128;DHT22;8679;50.842;4.322;2022-07-29T04:45:43;16.30;99.90
17128;DHT22;8679;50.842;4.322;2022-07-29T04:48:08;16.30;99.90
17128;DHT22;8679;50.842;4.322;2022-07-29T04:50:34;16.40;99.90
17128;DHT22;8679;50.842;4.322;2022-07-29T04:53:00;16.40;99.90
17128;DHT22;8679;50.842;4.322;2022-07-29T04:55:25;16.40;99.90
17128;DHT22;8679;50.842;4.322;2022-07-29T04:57:51;16.40;99.90
17128;DHT22;8679;50.842;4.322;2022-07-29T05:00:17;16.40;99.90
17128;DHT22;8679;50.842;4.322;2022-07-29T05:02:43;16.50;99.90
17128;DHT22;8679;50.842;4.322;2022-07-29T05:05:08;16.50;99.90
17128;DHT22;8679;50.842;4.322;2022-07-29T05:07:34;16.50;99.90
17128;DHT22;8679;50.842;4.322;2022-07-29T05:10:00;16.50;99.90
17128;DHT22;8679;50.842;4.322;2022-07-29T05:12:25;16.50;99.90
17128;DHT22;8679;50.842;4.322;2022-07-29T05:14:51;16.50;99.90
17128;DHT22;8679;50.842;4.322;2022-07-29T05:17:17;16.60;99.90
17128;DHT22;8679;50.842;4.322;2022-07-29T05:19:43;16.60;99.90
17128;DHT22;8679;50.842;4.322;2022-07-29T05:22:09;16.60;99.90
17128;DHT22;8679;50.842;4.322;2022-07-29T05:24:34;16.70;99.90
17128;DHT22;8679;50.842;4.322;2022-07-29T05:27:00;16.70;99.90
17128;DHT22;8679;50.842;4.322;2022-07-29T05:29:26;16.70;99.90
17128;DHT22;8679;50.842;4.322;2022-07-29T05:31:52;16.70;99.90
17128;DHT22;8679;50.842;4.322;2022-07-29T05:34:19;16.80;99.90
17128;DHT22;8679;50.842;4.322;2022-07-29T05:36:45;16.80;99.90
17128;DHT22;8679;50.842;4.322;2022-07-29T05:39:11;16.80;99.90
17128;DHT22;8679;50.842;4.322;2022-07-29T05:41:38;16.90;99.90
17128;DHT22;8679;50.842;4.322;2022-07-29T05:44:04;16.90;99.90
17128;DHT22;8679;50.842;4.322;2022-07-29T05:46:29;16.90;99.90
17128;DHT22;8679;50.842;4.322;2022-07-29T05:48:55;16.90;99.90
17128;DHT22;8679;50.842;4.322;2022-07-29T05:51:21;16.90;99.90
17128;DHT22;8679;50.842;4.322;2022-07-29T05:53:47;16.90;99.90
17128;DHT22;8679;50.842;4.322;2022-07-29T05:56:13;17.00;99.90
17128;DHT22;8679;50.842;4.322;2022-07-29T05:58:38;17.00;99.90
17128;DHT22;8679;50.842;4.322;2022-07-29T06:01:04;17.10;99.90
17128;DHT22;8679;50.842;4.322;2022-07-29T06:03:30;17.20;99.90
17128;DHT22;8679;50.842;4.322;2022-07-29T06:05:55;17.20;99.90
17128;DHT22;8679;50.842;4.322;2022-07-29T06:08:21;17.20;99.90
17128;DHT22;8679;50.842;4.322;2022-07-29T06:10:47;17.30;99.90
17128;DHT22;8679;50.842;4.322;2022-07-29T06:13:13;17.30;99.90
17128;DHT22;8679;50.842;4.322;2022-07-29T06:15:41;17.50;99.90
17128;DHT22;8679;50.842;4.322;2022-07-29T06:18:07;17.50;99.90
17128;DHT22;8679;50.842;4.322;2022-07-29T06:20:35;17.60;99.90
17128;DHT22;8679;50.842;4.322;2022-07-29T06:23:01;17.80;99.90
17128;DHT22;8679;50.842;4.322;2022-07-29T06:25:29;17.90;99.90
17128;DHT22;8679;50.842;4.322;2022-07-29T06:27:55;18.00;99.90
17128;DHT22;8679;50.842;4.322;2022-07-29T06:30:21;18.00;99.90
17128;DHT22;8679;50.842;4.322;2022-07-29T06:32:47;18.10;99.90
17128;DHT22;8679;50.842;4.322;2022-07-29T06:35:13;18.10;99.90
17128;DHT22;8679;50.842;4.322;2022-07-29T06:37:39;18.20;99.90
17128;DHT22;8679;50.842;4.322;2022-07-29T06:40:05;18.20;99.90
17128;DHT22;8679;50.842;4.322;2022-07-29T06:42:49;18.40;99.90
17128;DHT22;8679;50.842;4.322;2022-07-29T06:45:15;18.50;99.90
17128;DHT22;8679;50.842;4.322;2022-07-29T06:47:41;18.60;99.90
17128;DHT22;8679;50.842;4.322;2022-07-29T06:50:07;18.90;99.90
17128;DHT22;8679;50.842;4.322;2022-07-29T06:52:37;19.00;99.90
17128;DHT22;8679;50.842;4.322;2022-07-29T06:55:04;19.30;99.90
17128;DHT22;8679;50.842;4.322;2022-07-29T06:57:30;19.50;99.90
17128;DHT22;8679;50.842;4.322;2022-07-29T06:59:56;19.70;99.90
17128;DHT22;8679;50.842;4.322;2022-07-29T07:02:22;19.80;99.90
17128;DHT22;8679;50.842;4.322;2022-07-29T07:04:48;19.80;99.90
17128;DHT22;8679;50.842;4.322;2022-07-29T07:07:13;19.90;99.90
17128;DHT22;8679;50.842;4.322;2022-07-29T07:09:39;20.00;99.90
17128;DHT22;8679;50.842;4.322;2022-07-29T07:12:05;20.10;99.90
17128;DHT22;8679;50.842;4.322;2022-07-29T07:14:31;20.10;99.90
17128;DHT22;8679;50.842;4.322;2022-07-29T07:16:56;20.20;99.90
17128;DHT22;8679;50.842;4.322;2022-07-29T07:19:22;20.20;99.90
17128;DHT22;8679;50.842;4.322;2022-07-29T07:21:48;20.10;99.90
17128;DHT22;8679;50.842;4.322;2022-07-29T07:24:14;20.00;99.90
17128;DHT22;8679;50.842;4.322;2022-07-29T07:26:39;19.90;99.90
17128;DHT22;8679;50.842;4.322;2022-07-29T07:29:06;19.90;99.90
17128;DHT22;8679;50.842;4.322;2022-07-29T07:31:31;19.90;99.90
17128;DHT22;8679;50.842;4.322;2022-07-29T07:33:57;19.90;99.90
17128;DHT22;8679;50.842;4.322;2022-07-29T07:36:23;19.90;99.90
17128;DHT22;8679;50.842;4.322;2022-07-29T07:38:49;19.90;99.90
17128;DHT22;8679;50.842;4.322;2022-07-29T07:41:15;19.90;99.90
17128;DHT22;8679;50.842;4.322;2022-07-29T07:43:41;19.90;99.90
17128;DHT22;8679;50.842;4.322;2022-07-29T07:46:06;19.90;99.90
17128;DHT22;8679;50.842;4.322;2022-07-29T07:48:32;19.90;99.90
17128;DHT22;8679;50.842;4.322;2022-07-29T07:51:00;19.90;99.90
17128;DHT22;8679;50.842;4.322;2022-07-29T07:53:26;19.90;99.90
17128;DHT22;8679;50.842;4.322;2022-07-29T07:55:52;20.00;99.90
17128;DHT22;8679;50.842;4.322;2022-07-29T07:58:17;20.10;99.90
17128;DHT22;8679;50.842;4.322;2022-07-29T08:00:43;20.20;99.90
17128;DHT22;8679;50.842;4.322;2022-07-29T08:03:09;20.20;99.90
17128;DHT22;8679;50.842;4.322;2022-07-29T08:05:38;20.30;99.90
17128;DHT22;8679;50.842;4.322;2022-07-29T08:08:04;20.40;99.90
17128;DHT22;8679;50.842;4.322;2022-07-29T08:10:30;20.50;99.90
17128;DHT22;8679;50.842;4.322;2022-07-29T08:13:15;20.50;99.90
17128;DHT22;8679;50.842;4.322;2022-07-29T08:15:41;20.60;99.90
17128;DHT22;8679;50.842;4.322;2022-07-29T08:18:08;20.60;99.90
17128;DHT22;8679;50.842;4.322;2022-07-29T08:20:35;20.60;99.90
17128;DHT22;8679;50.842;4.322;2022-07-29T08:23:02;20.60;99.90
17128;DHT22;8679;50.842;4.322;2022-07-29T08:25:28;20.70;99.90
17128;DHT22;8679;50.842;4.322;2022-07-29T08:27:54;20.70;99.90
17128;DHT22;8679;50.842;4.322;2022-07-29T08:30:19;20.80;99.90
17128;DHT22;8679;50.842;4.322;2022-07-29T08:32:47;20.90;99.90
17128;DHT22;8679;50.842;4.322;2022-07-29T08:35:13;21.00;99.90
17128;DHT22;8679;50.842;4.322;2022-07-29T08:37:39;21.00;99.90
17128;DHT22;8679;50.842;4.322;2022-07-29T08:40:05;21.10;99.90
17128;DHT22;8679;50.842;4.322;2022-07-29T08:42:31;21.10;99.90
17128;DHT22;8679;50.842;4.322;2022-07-29T08:44:58;21.10;99.90
17128;DHT22;8679;50.842;4.322;2022-07-29T08:47:24;21.10;99.90
17128;DHT22;8679;50.842;4.322;2022-07-29T08:49:52;21.20;99.90
17128;DHT22;8679;50.842;4.322;2022-07-29T08:52:18;21.30;99.90
17128;DHT22;8679;50.842;4.322;2022-07-29T08:54:45;21.40;99.90
17128;DHT22;8679;50.842;4.322;2022-07-29T08:57:14;21.50;99.90
17128;DHT22;8679;50.842;4.322;2022-07-29T08:59:42;21.60;99.90
17128;DHT22;8679;50.842;4.322;2022-07-29T09:02:18;21.60;99.90
17128;DHT22;8679;50.842;4.322;2022-07-29T09:04:44;21.60;99.90
17128;DHT22;8679;50.842;4.322;2022-07-29T09:07:15;21.70;99.90
17128;DHT22;8679;50.842;4.322;2022-07-29T09:09:41;21.70;99.90
17128;DHT22;8679;50.842;4.322;2022-07-29T09:12:08;21.80;99.90
17128;DHT22;8679;50.842;4.322;2022-07-29T09:14:34;22.00;99.90
17128;DHT22;8679;50.842;4.322;2022-07-29T09:17:00;22.00;99.90
17128;DHT22;8679;50.842;4.322;2022-07-29T09:21:52;22.20;99.90
17128;DHT22;8679;50.842;4.322;2022-07-29T09:24:43;22.30;99.90
17128;DHT22;8679;50.842;4.322;2022-07-29T09:27:27;22.30;99.90
17128;DHT22;8679;50.842;4.322;2022-07-29T09:30:10;22.40;99.90
17128;DHT22;8679;50.842;4.322;2022-07-29T09:32:58;22.60;99.90
17128;DHT22;8679;50.842;4.322;2022-07-29T09:35:27;22.60;99.90
17128;DHT22;8679;50.842;4.322;2022-07-29T09:37:53;22.60;99.90
17128;DHT22;8679;50.842;4.322;2022-07-29T09:40:27;22.70;99.90
17128;DHT22;8679;50.842;4.322;2022-07-29T09:42:53;22.70;99.90
17128;DHT22;8679;50.842;4.322;2022-07-29T09:45:34;22.80;99.90
17128;DHT22;8679;50.842;4.322;2022-07-29T09:48:14;22.80;99.90
17128;DHT22;8679;50.842;4.322;2022-07-29T09:50:41;22.90;99.90
17128;DHT22;8679;50.842;4.322;2022-07-29T09:53:08;23.00;99.90
17128;DHT22;8679;50.842;4.322;2022-07-29T09:55:51;23.00;99.90
17128;DHT22;8679;50.842;4.322;2022-07-29T09:58:21;23.10;99.90
17128;DHT22;8679;50.842;4.322;2022-07-29T10:00:48;23.30;99.90
17128;DHT22;8679;50.842;4.322;2022-07-29T10:03:16;23.30;99.90
17128;DHT22;8679;50.842;4.322;2022-07-29T10:05:42;23.40;99.90
17128;DHT22;8679;50.842;4.322;2022-07-29T10:08:09;23.50;99.90
17128;DHT22;8679;50.842;4.322;2022-07-29T10:10:41;23.40;99.90
17128;DHT22;8679;50.842;4.322;2022-07-29T10:13:12;23.50;99.90
17128;DHT22;8679;50.842;4.322;2022-07-29T10:15:40;23.70;99.90
17128;DHT22;8679;50.842;4.322;2022-07-29T10:18:09;24.00;99.90
17128;DHT22;8679;50.842;4.322;2022-07-29T10:20:36;24.10;99.90
17128;DHT22;8679;50.842;4.322;2022-07-29T10:23:02;24.10;99.90
17128;DHT22;8679;50.842;4.322;2022-07-29T10:25:28;24.10;99.90
17128;DHT22;8679;50.842;4.322;2022-07-29T10:27:54;24.20;99.90
17128;DHT22;8679;50.842;4.322;2022-07-29T10:30:21;24.20;99.90
17128;DHT22;8679;50.842;4.322;2022-07-29T10:38:40;24.30;99.90
17128;DHT22;8679;50.842;4.322;2022-07-29T10:44:15;24.70;99.90
17128;DHT22;8679;50.842;4.322;2022-07-29T10:46:42;25.00;99.90
17128;DHT22;8679;50.842;4.322;2022-07-29T11:05:07;25.10;99.90
17128;DHT22;8679;50.842;4.322;2022-07-29T11:07:35;25.00;99.90
17128;DHT22;8679;50.842;4.322;2022-07-29T11:15:22;25.30;99.90
17128;DHT22;8679;50.842;4.322;2022-07-29T11:20:46;25.30;99.90
17128;DHT22;8679;50.842;4.322;2022-07-29T11:23:32;25.30;99.90
17128;DHT22;8679;50.842;4.322;2022-07-29T11:26:13;25.40;99.90
17128;DHT22;8679;50.842;4.322;2022-07-29T11:28:51;25.60;99.90
17128;DHT22;8679;50.842;4.322;2022-07-29T11:34:36;26.20;99.90
17128;DHT22;8679;50.842;4.322;2022-07-29T11:39:47;26.60;99.90
17128;DHT22;8679;50.842;4.322;2022-07-29T11:45:02;26.70;99.90
17128;DHT22;8679;50.842;4.322;2022-07-29T11:47:35;26.60;99.90
17128;DHT22;8679;50.842;4.322;2022-07-29T11:50:03;26.20;99.90
17128;DHT22;8679;50.842;4.322;2022-07-29T11:52:36;26.10;99.90
17128;DHT22;8679;50.842;4.322;2022-07-29T11:55:05;26.80;99.90
17128;DHT22;8679;50.842;4.322;2022-07-29T11:57:34;27.30;99.90
17128;DHT22;8679;50.842;4.322;2022-07-29T12:00:02;27.80;99.90
17128;DHT22;8679;50.842;4.322;2022-07-29T12:02:41;28.10;99.90
17128;DHT22;8679;50.842;4.322;2022-07-29T12:05:08;28.10;98.90
17128;DHT22;8679;50.842;4.322;2022-07-29T12:07:35;27.70;98.60
17128;DHT22;8679;50.842;4.322;2022-07-29T12:10:03;27.50;98.80
17128;DHT22;8679;50.842;4.322;2022-07-29T12:12:29;27.30;96.70
17128;DHT22;8679;50.842;4.322;2022-07-29T12:14:54;27.10;97.40
17128;DHT22;8679;50.842;4.322;2022-07-29T12:17:30;27.20;96.40
17128;DHT22;8679;50.842;4.322;2022-07-29T12:19:57;27.20;96.20
17128;DHT22;8679;50.842;4.322;2022-07-29T12:22:28;27.40;94.90
17128;DHT22;8679;50.842;4.322;2022-07-29T12:24:55;27.70;94.80
17128;DHT22;8679;50.842;4.322;2022-07-29T12:27:22;28.20;95.30
17128;DHT22;8679;50.842;4.322;2022-07-29T12:29:58;28.20;92.60
17128;DHT22;8679;50.842;4.322;2022-07-29T12:32:52;28.00;93.00
17128;DHT22;8679;50.842;4.322;2022-07-29T12:35:18;28.00;94.30
17128;DHT22;8679;50.842;4.322;2022-07-29T12:37:46;27.90;93.40
17128;DHT22;8679;50.842;4.322;2022-07-29T12:40:17;27.80;93.90
17128;DHT22;8679;50.842;4.322;2022-07-29T12:43:16;27.80;92.60
17128;DHT22;8679;50.842;4.322;2022-07-29T12:45:47;27.80;93.90
17128;DHT22;8679;50.842;4.322;2022-07-29T12:48:14;28.30;92.10
17128;DHT22;8679;50.842;4.322;2022-07-29T12:50:54;29.00;93.50
17128;DHT22;8679;50.842;4.322;2022-07-29T12:53:20;30.00;91.90
17128;DHT22;8679;50.842;4.322;2022-07-29T12:55:49;30.10;86.80
17128;DHT22;8679;50.842;4.322;2022-07-29T12:58:40;29.70;83.70
17128;DHT22;8679;50.842;4.322;2022-07-29T13:03:55;28.90;81.50
17128;DHT22;8679;50.842;4.322;2022-07-29T13:06:40;28.80;84.10
17128;DHT22;8679;50.842;4.322;2022-07-29T13:09:15;28.50;81.60
17128;DHT22;8679;50.842;4.322;2022-07-29T13:11:50;28.40;82.70
17128;DHT22;8679;50.842;4.322;2022-07-29T13:14:40;28.30;83.30
17128;DHT22;8679;50.842;4.322;2022-07-29T13:17:14;28.60;85.60
17128;DHT22;8679;50.842;4.322;2022-07-29T13:20:14;28.70;83.00
17128;DHT22;8679;50.842;4.322;2022-07-29T13:22:40;28.10;83.10
17128;DHT22;8679;50.842;4.322;2022-07-29T13:25:08;28.30;83.30
17128;DHT22;8679;50.842;4.322;2022-07-29T13:27:37;28.80;82.10
17128;DHT22;8679;50.842;4.322;2022-07-29T13:30:07;29.60;82.50
17128;DHT22;8679;50.842;4.322;2022-07-29T13:32:34;30.70;75.10
17128;DHT22;8679;50.842;4.322;2022-07-29T13:35:05;30.30;72.20
17128;DHT22;8679;50.842;4.322;2022-07-29T13:37:31;30.00;73.50
17128;DHT22;8679;50.842;4.322;2022-07-29T13:39:59;30.80;70.60
17128;DHT22;8679;50.842;4.322;2022-07-29T13:42:26;30.70;67.20
17128;DHT22;8679;50.842;4.322;2022-07-29T13:44:52;30.60;66.40
17128;DHT22;8679;50.842;4.322;2022-07-29T13:47:19;31.20;66.80
17128;DHT22;8679;50.842;4.322;2022-07-29T13:49:45;31.60;65.60
17128;DHT22;8679;50.842;4.322;2022-07-29T13:52:10;32.30;58.90
17128;DHT22;8679;50.842;4.322;2022-07-29T13:54:36;32.40;58.50
17128;DHT22;8679;50.842;4.322;2022-07-29T13:57:04;31.70;53.90
17128;DHT22;8679;50.842;4.322;2022-07-29T13:59:30;30.90;52.80
17128;DHT22;8679;50.842;4.322;2022-07-29T14:01:55;31.20;54.10
17128;DHT22;8679;50.842;4.322;2022-07-29T14:04:21;31.10;54.50
17128;DHT22;8679;50.842;4.322;2022-07-29T14:06:49;32.00;54.90
17128;DHT22;8679;50.842;4.322;2022-07-29T14:09:15;33.20;53.00
17128;DHT22;8679;50.842;4.322;2022-07-29T14:11:40;33.80;49.50
17128;DHT22;8679;50.842;4.322;2022-07-29T14:14:07;33.20;45.00
17128;DHT22;8679;50.842;4.322;2022-07-29T14:16:33;31.80;45.70
17128;DHT22;8679;50.842;4.322;2022-07-29T14:18:58;31.20;48.40
17128;DHT22;8679;50.842;4.322;2022-07-29T14:21:24;30.80;49.50
17128;DHT22;8679;50.842;4.322;2022-07-29T14:23:50;30.60;52.50
17128;DHT22;8679;50.842;4.322;2022-07-29T14:26:17;30.80;51.90
17128;DHT22;8679;50.842;4.322;2022-07-29T14:28:43;30.80;50.30
17128;DHT22;8679;50.842;4.322;2022-07-29T14:31:09;31.30;50.00
17128;DHT22;8679;50.842;4.322;2022-07-29T14:33:34;32.40;50.30
17128;DHT22;8679;50.842;4.322;2022-07-29T14:36:00;33.20;46.10
17128;DHT22;8679;50.842;4.322;2022-07-29T14:38:26;33.40;41.80
17128;DHT22;8679;50.842;4.322;2022-07-29T14:40:52;32.10;41.20
17128;DHT22;8679;50.842;4.322;2022-07-29T14:43:17;32.20;40.80
17128;DHT22;8679;50.842;4.322;2022-07-29T14:45:43;31.90;41.10
17128;DHT22;8679;50.842;4.322;2022-07-29T14:48:09;31.80;41.90
17128;DHT22;8679;50.842;4.322;2022-07-29T14:50:37;32.30;41.50
17128;DHT22;8679;50.842;4.322;2022-07-29T14:53:03;31.50;43.30
17128;DHT22;8679;50.842;4.322;2022-07-29T14:55:29;32.10;45.10
17128;DHT22;8679;50.842;4.322;2022-07-29T14:57:55;32.90;44.00
17128;DHT22;8679;50.842;4.322;2022-07-29T15:00:21;33.70;44.40
17128;DHT22;8679;50.842;4.322;2022-07-29T15:02:47;34.30;40.50
17128;DHT22;8679;50.842;4.322;2022-07-29T15:05:13;34.40;37.70
17128;DHT22;8679;50.842;4.322;2022-07-29T15:07:39;34.10;37.10
17128;DHT22;8679;50.842;4.322;2022-07-29T15:10:05;34.10;38.90
17128;DHT22;8679;50.842;4.322;2022-07-29T15:12:31;34.70;36.90
17128;DHT22;8679;50.842;4.322;2022-07-29T15:14:57;35.80;34.60
17128;DHT22;8679;50.842;4.322;2022-07-29T15:17:22;36.20;33.10
17128;DHT22;8679;50.842;4.322;2022-07-29T15:19:48;36.80;31.40
17128;DHT22;8679;50.842;4.322;2022-07-29T15:22:14;37.70;29.40
17128;DHT22;8679;50.842;4.322;2022-07-29T15:24:40;36.50;27.60
17128;DHT22;8679;50.842;4.322;2022-07-29T15:27:05;35.70;28.20
17128;DHT22;8679;50.842;4.322;2022-07-29T15:29:31;36.00;28.50
17128;DHT22;8679;50.842;4.322;2022-07-29T15:31:57;36.00;28.50
17128;DHT22;8679;50.842;4.322;2022-07-29T15:34:22;35.50;28.20
17128;DHT22;8679;50.842;4.322;2022-07-29T15:36:50;36.20;29.10
17128;DHT22;8679;50.842;4.322;2022-07-29T15:39:16;36.80;28.70
17128;DHT22;8679;50.842;4.322;2022-07-29T15:41:42;37.10;26.40
17128;DHT22;8679;50.842;4.322;2022-07-29T15:44:08;38.20;25.60
17128;DHT22;8679;50.842;4.322;2022-07-29T15:46:33;38.60;24.40
17128;DHT22;8679;50.842;4.322;2022-07-29T15:49:18;38.50;23.60
17128;DHT22;8679;50.842;4.322;2022-07-29T15:51:43;38.80;23.20
17128;DHT22;8679;50.842;4.322;2022-07-29T15:54:09;38.90;22.00
17128;DHT22;8679;50.842;4.322;2022-07-29T15:56:41;38.10;22.30
17128;DHT22;8679;50.842;4.322;2022-07-29T15:59:12;38.20;21.90
17128;DHT22;8679;50.842;4.322;2022-07-29T16:01:43;38.40;22.00
17128;DHT22;8679;50.842;4.322;2022-07-29T16:04:09;37.30;21.20
17128;DHT22;8679;50.842;4.322;2022-07-29T16:06:35;36.90;21.30
17128;DHT22;8679;50.842;4.322;2022-07-29T16:09:00;36.20;22.40
17128;DHT22;8679;50.842;4.322;2022-07-29T16:11:26;36.30;22.80
17128;DHT22;8679;50.842;4.322;2022-07-29T16:13:52;36.70;22.30
17128;DHT22;8679;50.842;4.322;2022-07-29T16:16:17;37.20;21.70
17128;DHT22;8679;50.842;4.322;2022-07-29T16:18:44;36.30;21.70
17128;DHT22;8679;50.842;4.322;2022-07-29T16:21:10;35.60;22.70
17128;DHT22;8679;50.842;4.322;2022-07-29T16:23:37;34.90;23.40
17128;DHT22;8679;50.842;4.322;2022-07-29T16:26:03;33.80;24.20
17128;DHT22;8679;50.842;4.322;2022-07-29T16:28:29;32.30;26.20
17128;DHT22;8679;50.842;4.322;2022-07-29T16:30:55;31.40;27.60
17128;DHT22;8679;50.842;4.322;2022-07-29T16:33:22;31.00;29.20
17128;DHT22;8679;50.842;4.322;2022-07-29T16:35:51;31.60;28.20
17128;DHT22;8679;50.842;4.322;2022-07-29T16:38:17;31.50;28.60
17128;DHT22;8679;50.842;4.322;2022-07-29T16:40:44;31.70;29.10
17128;DHT22;8679;50.842;4.322;2022-07-29T16:43:09;32.90;27.50
17128;DHT22;8679;50.842;4.322;2022-07-29T16:45:35;33.60;27.40
17128;DHT22;8679;50.842;4.322;2022-07-29T16:48:02;34.10;26.80
17128;DHT22;8679;50.842;4.322;2022-07-29T16:50:28;35.20;25.30
17128;DHT22;8679;50.842;4.322;2022-07-29T16:52:55;35.60;24.80
17128;DHT22;8679;50.842;4.322;2022-07-29T16:55:20;34.90;25.00